sensor_id;sensor_type;location;lat;lon;timestamp;temperature;humidity
51021;DHT22;38907;45.562;8.856;2023-06-19T00:03:07;22.20;99.90
51021;DHT22;38907;45.562;8.856;2023-06-19T00:08:09;22.00;99.90
51021;DHT22;38907;45.562;8.856;2023-06-19T00:13:12;22.00;99.90
51021;DHT22;38907;45.562;8.856;2023-06-19T00:18:15;22.00;99.90
51021;DHT22;38907;45.562;8.856;2023-06-19T00:23:20;21.80;99.90
51021;DHT22;38907;45.562;8.856;2023-06-19T00:28:23;22.00;99.90
51021;DHT22;38907;45.562;8.856;2023-06-19T00:33:25;22.20;99.90
51021;DHT22;38907;45.562;8.856;2023-06-19T00:38:27;22.20;99.90
51021;DHT22;38907;45.562;8.856;2023-06-19T00:43:30;22.20;99.90
51021;DHT22;38907;45.562;8.856;2023-06-19T00:48:32;21.90;99.90
51021;DHT22;38907;45.562;8.856;2023-06-19T00:53:35;21.90;99.90
51021;DHT22;38907;45.562;8.856;2023-06-19T00:58:38;22.00;99.90
51021;DHT22;38907;45.562;8.856;2023-06-19T01:03:41;22.00;99.90
51021;DHT22;38907;45.562;8.856;2023-06-19T01:08:49;22.00;99.90
51021;DHT22;38907;45.562;8.856;2023-06-19T01:13:56;21.80;99.90
51021;DHT22;38907;45.562;8.856;2023-06-19T01:19:00;22.00;99.90
51021;DHT22;38907;45.562;8.856;2023-06-19T01:24:04;22.00;99.90
51021;DHT22;38907;45.562;8.856;2023-06-19T01:29:06;22.00;99.90
51021;DHT22;38907;45.562;8.856;2023-06-19T01:34:09;22.00;99.90
51021;DHT22;38907;45.562;8.856;2023-06-19T01:39:14;21.80;99.90
51021;DHT22;38907;45.562;8.856;2023-06-19T01:44:17;21.80;99.90
51021;DHT22;38907;45.562;8.856;2023-06-19T01:49:19;21.80;99.90
51021;DHT22;38907;45.562;8.856;2023-06-19T01:54:22;21.90;99.90
51021;DHT22;38907;45.562;8.856;2023-06-19T01:59:24;22.10;99.90
51021;DHT22;38907;45.562;8.856;2023-06-19T02:04:26;22.10;99.90
51021;DHT22;38907;45.562;8.856;2023-06-19T02:09:29;21.90;99.90
51021;DHT22;38907;45.562;8.856;2023-06-19T02:14:31;22.00;99.90
51021;DHT22;38907;45.562;8.856;2023-06-19T02:19:33;22.00;99.90
51021;DHT22;38907;45.562;8.856;2023-06-19T02:24:36;21.80;99.90
51021;DHT22;38907;45.562;8.856;2023-06-19T02:29:39;21.90;99.90
51021;DHT22;38907;45.562;8.856;2023-06-19T02:34:41;21.60;99.90
51021;DHT22;38907;45.562;8.856;2023-06-19T02:39:44;21.30;99.90
51021;DHT22;38907;45.562;8.856;2023-06-19T02:44:46;21.20;99.90
51021;DHT22;38907;45.562;8.856;2023-06-19T02:49:48;21.60;99.90
51021;DHT22;38907;45.562;8.856;2023-06-19T02:54:51;21.50;99.90
51021;DHT22;38907;45.562;8.856;2023-06-19T02:59:53;21.20;99.90
51021;DHT22;38907;45.562;8.856;2023-06-19T03:04:55;21.10;99.90
51021;DHT22;38907;45.562;8.856;2023-06-19T03:09:58;21.40;99.90
51021;DHT22;38907;45.562;8.856;2023-06-19T03:15:00;21.40;99.90
51021;DHT22;38907;45.562;8.856;2023-06-19T03:20:02;21.40;99.90
51021;DHT22;38907;45.562;8.856;2023-06-19T03:25:08;21.40;99.90
51021;DHT22;38907;45.562;8.856;2023-06-19T03:30:10;21.50;99.90
51021;DHT22;38907;45.562;8.856;2023-06-19T03:35:13;21.40;99.90
51021;DHT22;38907;45.562;8.856;2023-06-19T03:40:16;21.20;99.90
51021;DHT22;38907;45.562;8.856;2023-06-19T03:45:18;21.10;99.90
51021;DHT22;38907;45.562;8.856;2023-06-19T03:50:20;20.90;99.90
51021;DHT22;38907;45.562;8.856;2023-06-19T03:55:24;20.90;99.90
51021;DHT22;38907;45.562;8.856;2023-06-19T04:00:26;21.00;99.90
51021;DHT22;38907;45.562;8.856;2023-06-19T04:05:28;21.10;99.90
51021;DHT22;38907;45.562;8.856;2023-06-19T04:10:31;21.20;99.90
51021;DHT22;38907;45.562;8.856;2023-06-19T04:15:33;21.20;99.90
51021;DHT22;38907;45.562;8.856;2023-06-19T04:20:36;21.40;99.90
51021;DHT22;38907;45.562;8.856;2023-06-19T04:25:39;21.50;99.90
51021;DHT22;38907;45.562;8.856;2023-06-19T04:30:41;21.40;99.90
51021;DHT22;38907;45.562;8.856;2023-06-19T04:35:43;21.40;99.90
51021;DHT22;38907;45.562;8.856;2023-06-19T04:40:46;21.40;99.90
51021;DHT22;38907;45.562;8.856;2023-06-19T04:45:48;21.60;99.90
51021;DHT22;38907;45.562;8.856;2023-06-19T04:50:50;21.70;99.90
51021;DHT22;38907;45.562;8.856;2023-06-19T04:55:53;21.70;99.90
51021;DHT22;38907;45.562;8.856;2023-06-19T05:00:55;21.50;99.90
51021;DHT22;38907;45.562;8.856;2023-06-19T05:05:58;21.60;99.90
51021;DHT22;38907;45.562;8.856;2023-06-19T05:11:01;21.80;99.90
51021;DHT22;38907;45.562;8.856;2023-06-19T05:16:03;21.80;99.90
51021;DHT22;38907;45.562;8.856;2023-06-19T05:21:05;21.80;99.90
51021;DHT22;38907;45.562;8.856;2023-06-19T05:26:08;21.80;99.90
51021;DHT22;38907;45.562;8.856;2023-06-19T05:31:10;21.90;99.90
51021;DHT22;38907;45.562;8.856;2023-06-19T05:36:12;21.90;99.90
51021;DHT22;38907;45.562;8.856;2023-06-19T05:41:16;21.90;99.90
51021;DHT22;38907;45.562;8.856;2023-06-19T05:46:18;22.00;99.90
51021;DHT22;38907;45.562;8.856;2023-06-19T05:51:19;22.10;99.90
51021;DHT22;38907;45.562;8.856;2023-06-19T05:56:23;22.10;99.90
51021;DHT22;38907;45.562;8.856;2023-06-19T06:01:25;22.20;99.90
51021;DHT22;38907;45.562;8.856;2023-06-19T06:06:28;22.20;99.90
51021;DHT22;38907;45.562;8.856;2023-06-19T06:11:31;22.30;99.90
51021;DHT22;38907;45.562;8.856;2023-06-19T06:16:33;22.50;99.90
51021;DHT22;38907;45.562;8.856;2023-06-19T06:21:35;22.50;99.90
51021;DHT22;38907;45.562;8.856;2023-06-19T06:26:38;22.40;99.90
51021;DHT22;38907;45.562;8.856;2023-06-19T06:31:40;22.60;99.90
51021;DHT22;38907;45.562;8.856;2023-06-19T06:36:42;22.70;99.90
51021;DHT22;38907;45.562;8.856;2023-06-19T06:41:45;22.90;99.90
51021;DHT22;38907;45.562;8.856;2023-06-19T06:46:47;23.10;99.90
51021;DHT22;38907;45.562;8.856;2023-06-19T06:51:49;23.10;99.90
51021;DHT22;38907;45.562;8.856;2023-06-19T06:56:52;23.30;99.90
51021;DHT22;38907;45.562;8.856;2023-06-19T07:01:56;23.30;99.90
51021;DHT22;38907;45.562;8.856;2023-06-19T07:06:58;23.40;99.90
51021;DHT22;38907;45.562;8.856;2023-06-19T07:12:02;23.40;99.90
51021;DHT22;38907;45.562;8.856;2023-06-19T07:17:05;23.40;99.90
51021;DHT22;38907;45.562;8.856;2023-06-19T07:22:07;23.40;99.90
51021;DHT22;38907;45.562;8.856;2023-06-19T07:27:11;23.70;99.90
51021;DHT22;38907;45.562;8.856;2023-06-19T07:32:14;23.90;99.90
51021;DHT22;38907;45.562;8.856;2023-06-19T07:37:16;24.00;99.90
51021;DHT22;38907;45.562;8.856;2023-06-19T07:42:20;24.30;99.90
51021;DHT22;38907;45.562;8.856;2023-06-19T07:47:22;24.50;99.90
51021;DHT22;38907;45.562;8.856;2023-06-19T07:52:24;24.60;99.90
51021;DHT22;38907;45.562;8.856;2023-06-19T07:57:27;24.60;99.90
51021;DHT22;38907;45.562;8.856;2023-06-19T08:02:29;24.80;99.90
51021;DHT22;38907;45.562;8.856;2023-06-19T08:07:30;24.80;99.90
51021;DHT22;38907;45.562;8.856;2023-06-19T08:12:34;25.00;99.90
51021;DHT22;38907;45.562;8.856;2023-06-19T08:17:36;25.10;99.90
51021;DHT22;38907;45.562;8.856;2023-06-19T08:22:38;25.20;99.90
51021;DHT22;38907;45.562;8.856;2023-06-19T08:27:41;25.20;99.90
51021;DHT22;38907;45.562;8.856;2023-06-19T08:32:46;25.40;99.90
51021;DHT22;38907;45.562;8.856;2023-06-19T08:37:48;25.40;99.90
51021;DHT22;38907;45.562;8.856;2023-06-19T08:42:52;25.50;99.90
51021;DHT22;38907;45.562;8.856;2023-06-19T08:47:59;25.50;99.90
51021;DHT22;38907;45.562;8.856;2023-06-19T08:53:01;25.40;99.90
51021;DHT22;38907;45.562;8.856;2023-06-19T08:58:05;25.50;99.90
51021;DHT22;38907;45.562;8.856;2023-06-19T09:03:07;25.70;99.90
51021;DHT22;38907;45.562;8.856;2023-06-19T09:08:13;25.90;99.90
51021;DHT22;38907;45.562;8.856;2023-06-19T09:13:17;26.00;99.90
51021;DHT22;38907;45.562;8.856;2023-06-19T09:18:19;26.10;99.90
51021;DHT22;38907;45.562;8.856;2023-06-19T09:23:21;26.10;99.90
51021;DHT22;38907;45.562;8.856;2023-06-19T09:28:25;26.00;99.90
51021;DHT22;38907;45.562;8.856;2023-06-19T09:33:30;26.20;99.90
51021;DHT22;38907;45.562;8.856;2023-06-19T09:38:33;26.20;99.90
51021;DHT22;38907;45.562;8.856;2023-06-19T09:43:39;26.10;99.90
51021;DHT22;38907;45.562;8.856;2023-06-19T09:48:44;26.20;99.90
51021;DHT22;38907;45.562;8.856;2023-06-19T09:53:47;26.40;99.90
51021;DHT22;38907;45.562;8.856;2023-06-19T09:58:53;26.40;99.90
51021;DHT22;38907;45.562;8.856;2023-06-19T10:04:04;26.50;99.90
51021;DHT22;38907;45.562;8.856;2023-06-19T10:09:07;26.40;99.90
51021;DHT22;38907;45.562;8.856;2023-06-19T10:14:11;26.60;99.90
51021;DHT22;38907;45.562;8.856;2023-06-19T10:19:15;26.70;99.90
51021;DHT22;38907;45.562;8.856;2023-06-19T10:24:18;26.70;99.90
51021;DHT22;38907;45.562;8.856;2023-06-19T10:29:22;26.70;99.90
51021;DHT22;38907;45.562;8.856;2023-06-19T10:34:33;26.80;99.90
51021;DHT22;38907;45.562;8.856;2023-06-19T10:39:35;27.00;99.90
51021;DHT22;38907;45.562;8.856;2023-06-19T10:44:38;27.10;99.90
51021;DHT22;38907;45.562;8.856;2023-06-19T10:49:42;27.30;99.90
51021;DHT22;38907;45.562;8.856;2023-06-19T10:54:44;27.50;99.90
51021;DHT22;38907;45.562;8.856;2023-06-19T10:59:50;27.40;99.90
51021;DHT22;38907;45.562;8.856;2023-06-19T11:04:53;27.30;99.90
51021;DHT22;38907;45.562;8.856;2023-06-19T11:09:55;27.50;99.90
51021;DHT22;38907;45.562;8.856;2023-06-19T11:14:58;27.70;99.90
51021;DHT22;38907;45.562;8.856;2023-06-19T11:20:00;27.80;99.90
51021;DHT22;38907;45.562;8.856;2023-06-19T11:25:02;27.90;99.90
51021;DHT22;38907;45.562;8.856;2023-06-19T11:30:07;27.80;99.90
51021;DHT22;38907;45.562;8.856;2023-06-19T11:35:11;27.90;99.90
51021;DHT22;38907;45.562;8.856;2023-06-19T11:40:13;27.70;99.90
51021;DHT22;38907;45.562;8.856;2023-06-19T11:45:18;27.90;99.90
51021;DHT22;38907;45.562;8.856;2023-06-19T11:50:26;28.00;99.90
51021;DHT22;38907;45.562;8.856;2023-06-19T11:55:28;28.30;99.90
51021;DHT22;38907;45.562;8.856;2023-06-19T12:00:31;28.20;99.90
51021;DHT22;38907;45.562;8.856;2023-06-19T12:05:33;28.00;99.90
51021;DHT22;38907;45.562;8.856;2023-06-19T12:10:35;28.10;99.90
51021;DHT22;38907;45.562;8.856;2023-06-19T12:15:38;28.30;99.90
51021;DHT22;38907;45.562;8.856;2023-06-19T12:20:40;28.30;99.90
51021;DHT22;38907;45.562;8.856;2023-06-19T12:25:42;28.20;99.90
51021;DHT22;38907;45.562;8.856;2023-06-19T12:30:45;28.30;99.90
51021;DHT22;38907;45.562;8.856;2023-06-19T12:35:49;28.20;99.90
51021;DHT22;38907;45.562;8.856;2023-06-19T12:40:51;28.40;99.90
51021;DHT22;38907;45.562;8.856;2023-06-19T12:45:54;28.50;99.50
51021;DHT22;38907;45.562;8.856;2023-06-19T12:50:56;28.70;99.90
51021;DHT22;38907;45.562;8.856;2023-06-19T12:55:58;28.80;99.90
51021;DHT22;38907;45.562;8.856;2023-06-19T13:01:01;28.80;99.80
51021;DHT22;38907;45.562;8.856;2023-06-19T13:06:03;28.80;99.90
51021;DHT22;38907;45.562;8.856;2023-06-19T13:11:05;28.60;99.90
51021;DHT22;38907;45.562;8.856;2023-06-19T13:16:08;28.90;99.90
51021;DHT22;38907;45.562;8.856;2023-06-19T13:21:11;29.00;99.90
51021;DHT22;38907;45.562;8.856;2023-06-19T13:26:13;29.00;98.70
51021;DHT22;38907;45.562;8.856;2023-06-19T13:31:16;29.10;99.30
51021;DHT22;38907;45.562;8.856;2023-06-19T13:36:18;29.20;98.40
51021;DHT22;38907;45.562;8.856;2023-06-19T13:41:20;29.10;98.30
51021;DHT22;38907;45.562;8.856;2023-06-19T13:46:25;29.20;99.30
51021;DHT22;38907;45.562;8.856;2023-06-19T13:51:27;29.10;98.10
51021;DHT22;38907;45.562;8.856;2023-06-19T13:56:29;29.10;98.40
51021;DHT22;38907;45.562;8.856;2023-06-19T14:01:33;29.20;98.30
51021;DHT22;38907;45.562;8.856;2023-06-19T14:06:35;29.20;98.90
51021;DHT22;38907;45.562;8.856;2023-06-19T14:11:38;29.40;98.90
51021;DHT22;38907;45.562;8.856;2023-06-19T14:16:41;29.40;98.00
51021;DHT22;38907;45.562;8.856;2023-06-19T14:21:43;29.50;98.60
51021;DHT22;38907;45.562;8.856;2023-06-19T14:26:45;29.80;98.60
51021;DHT22;38907;45.562;8.856;2023-06-19T14:31:50;29.50;97.90
51021;DHT22;38907;45.562;8.856;2023-06-19T14:36:52;29.00;98.20
51021;DHT22;38907;45.562;8.856;2023-06-19T14:41:54;28.70;99.60
51021;DHT22;38907;45.562;8.856;2023-06-19T14:46:58;28.70;99.60
51021;DHT22;38907;45.562;8.856;2023-06-19T14:51:59;28.90;99.80
51021;DHT22;38907;45.562;8.856;2023-06-19T14:57:02;29.10;99.90
51021;DHT22;38907;45.562;8.856;2023-06-19T15:02:06;29.70;99.90
51021;DHT22;38907;45.562;8.856;2023-06-19T15:07:08;30.00;98.80
51021;DHT22;38907;45.562;8.856;2023-06-19T15:12:10;29.90;98.30
51021;DHT22;38907;45.562;8.856;2023-06-19T15:17:13;30.00;98.80
51021;DHT22;38907;45.562;8.856;2023-06-19T15:22:15;30.20;99.10
51021;DHT22;38907;45.562;8.856;2023-06-19T15:27:17;30.20;98.20
51021;DHT22;38907;45.562;8.856;2023-06-19T15:32:20;29.90;98.50
51021;DHT22;38907;45.562;8.856;2023-06-19T15:37:22;30.30;98.40
51021;DHT22;38907;45.562;8.856;2023-06-19T15:42:24;30.10;97.90
51021;DHT22;38907;45.562;8.856;2023-06-19T15:47:27;30.30;98.30
51021;DHT22;38907;45.562;8.856;2023-06-19T15:52:29;30.40;98.50
51021;DHT22;38907;45.562;8.856;2023-06-19T15:57:31;30.60;98.10
51021;DHT22;38907;45.562;8.856;2023-06-19T16:02:35;30.60;98.50
51021;DHT22;38907;45.562;8.856;2023-06-19T16:07:36;30.70;98.50
51021;DHT22;38907;45.562;8.856;2023-06-19T16:12:38;30.80;98.30
51021;DHT22;38907;45.562;8.856;2023-06-19T16:17:41;30.70;98.30
51021;DHT22;38907;45.562;8.856;2023-06-19T16:22:44;30.70;99.00
51021;DHT22;38907;45.562;8.856;2023-06-19T16:27:46;30.80;98.40
51021;DHT22;38907;45.562;8.856;2023-06-19T16:32:49;30.90;98.60
51021;DHT22;38907;45.562;8.856;2023-06-19T16:37:52;30.40;99.50
51021;DHT22;38907;45.562;8.856;2023-06-19T16:42:55;30.30;99.30
51021;DHT22;38907;45.562;8.856;2023-06-19T16:48:00;30.00;99.50
51021;DHT22;38907;45.562;8.856;2023-06-19T16:53:02;29.80;99.90
51021;DHT22;38907;45.562;8.856;2023-06-19T16:58:06;29.50;99.90
51021;DHT22;38907;45.562;8.856;2023-06-19T17:03:09;29.30;99.90
51021;DHT22;38907;45.562;8.856;2023-06-19T17:08:12;29.10;99.90
51021;DHT22;38907;45.562;8.856;2023-06-19T17:13:14;29.00;99.90
51021;DHT22;38907;45.562;8.856;2023-06-19T17:18:18;28.90;99.90
51021;DHT22;38907;45.562;8.856;2023-06-19T17:23:19;28.90;99.90
51021;DHT22;38907;45.562;8.856;2023-06-19T17:28:21;28.80;99.90
51021;DHT22;38907;45.562;8.856;2023-06-19T17:33:25;28.70;99.90
51021;DHT22;38907;45.562;8.856;2023-06-19T17:38:26;28.70;99.90
51021;DHT22;38907;45.562;8.856;2023-06-19T17:43:28;28.60;99.90
51021;DHT22;38907;45.562;8.856;2023-06-19T17:48:32;28.60;99.90
51021;DHT22;38907;45.562;8.856;2023-06-19T17:53:33;28.60;99.90
51021;DHT22;38907;45.562;8.856;2023-06-19T17:58:36;28.50;99.90
51021;DHT22;38907;45.562;8.856;2023-06-19T18:03:39;28.50;99.90
51021;DHT22;38907;45.562;8.856;2023-06-19T18:08:41;28.40;99.90
51021;DHT22;38907;45.562;8.856;2023-06-19T18:13:43;28.30;99.90
51021;DHT22;38907;45.562;8.856;2023-06-19T18:18:46;28.20;99.90
51021;DHT22;38907;45.562;8.856;2023-06-19T18:23:48;28.20;99.90
51021;DHT22;38907;45.562;8.856;2023-06-19T18:28:50;28.00;99.90
51021;DHT22;38907;45.562;8.856;2023-06-19T18:33:53;28.00;99.90
51021;DHT22;38907;45.562;8.856;2023-06-19T18:38:55;27.90;99.90
51021;DHT22;38907;45.562;8.856;2023-06-19T18:43:57;27.80;99.90
51021;DHT22;38907;45.562;8.856;2023-06-19T18:49:01;27.70;99.90
51021;DHT22;38907;45.562;8.856;2023-06-19T18:54:03;27.70;99.90
51021;DHT22;38907;45.562;8.856;2023-06-19T18:59:05;27.70;99.90
51021;DHT22;38907;45.562;8.856;2023-06-19T19:04:08;27.60;99.90
51021;DHT22;38907;45.562;8.856;2023-06-19T19:09:10;27.60;99.90
51021;DHT22;38907;45.562;8.856;2023-06-19T19:14:11;27.50;99.90
51021;DHT22;38907;45.562;8.856;2023-06-19T19:19:15;27.40;99.90
51021;DHT22;38907;45.562;8.856;2023-06-19T19:24:16;27.30;99.90
51021;DHT22;38907;45.562;8.856;2023-06-19T19:29:18;27.10;99.90
51021;DHT22;38907;45.562;8.856;2023-06-19T19:34:21;26.90;99.90
51021;DHT22;38907;45.562;8.856;2023-06-19T19:39:24;26.80;99.90
51021;DHT22;38907;45.562;8.856;2023-06-19T19:44:26;26.70;99.90
51021;DHT22;38907;45.562;8.856;2023-06-19T19:49:29;26.60;99.90
51021;DHT22;38907;45.562;8.856;2023-06-19T19:54:32;26.50;99.90
51021;DHT22;38907;45.562;8.856;2023-06-19T19:59:33;26.30;99.90
51021;DHT22;38907;45.562;8.856;2023-06-19T20:04:38;26.30;99.90
51021;DHT22;38907;45.562;8.856;2023-06-19T20:09:40;26.30;99.90
51021;DHT22;38907;45.562;8.856;2023-06-19T20:14:43;26.20;99.90
51021;DHT22;38907;45.562;8.856;2023-06-19T20:19:46;26.10;99.90
51021;DHT22;38907;45.562;8.856;2023-06-19T20:24:48;26.00;99.90
51021;DHT22;38907;45.562;8.856;2023-06-19T20:29:50;26.00;99.90
51021;DHT22;38907;45.562;8.856;2023-06-19T20:34:54;25.90;99.90
51021;DHT22;38907;45.562;8.856;2023-06-19T20:39:57;25.80;99.90
51021;DHT22;38907;45.562;8.856;2023-06-19T20:45:00;25.70;99.70
51021;DHT22;38907;45.562;8.856;2023-06-19T20:50:04;25.60;99.90
51021;DHT22;38907;45.562;8.856;2023-06-19T20:55:07;25.60;99.90
51021;DHT22;38907;45.562;8.856;2023-06-19T21:00:10;25.60;99.80
51021;DHT22;38907;45.562;8.856;2023-06-19T21:05:15;25.70;99.90
51021;DHT22;38907;45.562;8.856;2023-06-19T21:10:17;25.50;99.90
51021;DHT22;38907;45.562;8.856;2023-06-19T21:15:20;25.50;99.90
51021;DHT22;38907;45.562;8.856;2023-06-19T21:20:23;25.30;99.90
51021;DHT22;38907;45.562;8.856;2023-06-19T21:25:25;25.30;99.90
51021;DHT22;38907;45.562;8.856;2023-06-19T21:30:27;25.20;99.90
51021;DHT22;38907;45.562;8.856;2023-06-19T21:35:30;25.10;99.90
51021;DHT22;38907;45.562;8.856;2023-06-19T21:40:32;25.10;99.90
51021;DHT22;38907;45.562;8.856;2023-06-19T21:45:33;25.00;99.90
51021;DHT22;38907;45.562;8.856;2023-06-19T21:50:37;25.00;99.90
51021;DHT22;38907;45.562;8.856;2023-06-19T21:55:39;25.00;99.90
51021;DHT22;38907;45.562;8.856;2023-06-19T22:00:40;25.00;99.90
51021;DHT22;38907;45.562;8.856;2023-06-19T22:05:44;25.00;99.90
51021;DHT22;38907;45.562;8.856;2023-06-19T22:10:46;25.00;99.90
51021;DHT22;38907;45.562;8.856;2023-06-19T22:15:47;24.90;99.90
51021;DHT22;38907;45.562;8.856;2023-06-19T22:20:52;24.90;99.90
51021;DHT22;38907;45.562;8.856;2023-06-19T22:25:54;24.80;99.90
51021;DHT22;38907;45.562;8.856;2023-06-19T22:30:56;24.70;99.90
51021;DHT22;38907;45.562;8.856;2023-06-19T22:35:59;24.70;99.90
51021;DHT22;38907;45.562;8.856;2023-06-19T22:41:01;24.70;99.90
51021;DHT22;38907;45.562;8.856;2023-06-19T22:46:03;24.60;99.90
51021;DHT22;38907;45.562;8.856;2023-06-19T22:51:06;24.60;99.90
51021;DHT22;38907;45.562;8.856;2023-06-19T22:56:08;24.60;99.90
51021;DHT22;38907;45.562;8.856;2023-06-19T23:01:10;24.60;99.90
51021;DHT22;38907;45.562;8.856;2023-06-19T23:06:13;24.60;99.90
51021;DHT22;38907;45.562;8.856;2023-06-19T23:11:15;24.50;99.90
51021;DHT22;38907;45.562;8.856;2023-06-19T23:16:17;24.50;99.90
51021;DHT22;38907;45.562;8.856;2023-06-19T23:21:20;24.40;99.90
51021;DHT22;38907;45.562;8.856;2023-06-19T23:26:22;24.20;99.90
51021;DHT22;38907;45.562;8.856;2023-06-19T23:31:25;24.20;99.90
51021;DHT22;38907;45.562;8.856;2023-06-19T23:36:28;24.00;99.90
51021;DHT22;38907;45.562;8.856;2023-06-19T23:41:30;23.60;99.90
51021;DHT22;38907;45.562;8.856;2023-06-19T23:46:32;23.50;99.90
51021;DHT22;38907;45.562;8.856;2023-06-19T23:51:35;23.50;99.90
51021;DHT22;38907;45.562;8.856;2023-06-19T23:56:37;23.60;99.90
